Time,TemperatureF,DewpointF,PressureIn,WindDirection,WindDirectionDegrees,WindSpeedMPH,WindSpeedGustMPH,Humidity,HourlyPrecipIn,Conditions,Clouds,dailyrainin,SoftwareType,DateUTC
2013-03-15 00:10:00,31.9,17.0,30.45,SSW,198,1.0,2.0,54,0.00,,,0.00,weatherlink.com 1.10,2013-03-15 04:10:00,
2013-03-15 00:25:00,32.1,17.0,30.45,SSE,164,2.0,2.0,55,0.00,,,0.00,weatherlink.com 1.10,2013-03-15 04:25:00,
2013-03-15 00:40:00,31.8,19.0,30.45,South,189,1.0,2.0,59,0.00,,,0.00,weatherlink.com 1.10,2013-03-15 04:40:00,
2013-03-15 00:55:00,31.6,21.0,30.45,NE,43,1.0,3.0,65,0.00,,,0.00,weatherlink.com 1.10,2013-03-15 04:55:00,
2013-03-15 01:10:00,33.0,23.0,30.45,SSE,167,3.0,3.0,66,0.00,,,0.00,weatherlink.com 1.10,2013-03-15 05:10:00,
2013-03-15 01:25:00,33.1,24.0,30.44,South,169,3.0,3.0,70,0.00,,,0.00,weatherlink.com 1.10,2013-03-15 05:25:00,
2013-03-15 01:40:00,34.1,26.0,30.44,WSW,257,0.0,3.0,71,0.00,,,0.00,weatherlink.com 1.10,2013-03-15 05:40:00,
2013-03-15 01:55:00,34.0,26.0,30.42,WNW,285,2.0,3.0,71,0.00,,,0.00,weatherlink.com 1.10,2013-03-15 05:55:00,
2013-03-15 02:10:00,32.4,24.0,30.43,SSE,147,1.0,4.0,71,0.00,,,0.00,weatherlink.com 1.10,2013-03-15 06:10:00,
2013-03-15 02:25:00,32.2,24.0,30.43,SE,131,2.0,2.0,73,0.00,,,0.00,weatherlink.com 1.10,2013-03-15 06:25:00,
2013-03-15 02:40:00,31.7,24.0,30.43,ESE,122,2.0,2.0,74,0.00,,,0.00,weatherlink.com 1.10,2013-03-15 06:40:00,
2013-03-15 02:55:00,31.4,23.0,30.43,SE,127,2.0,2.0,70,0.00,,,0.00,weatherlink.com 1.10,2013-03-15 06:55:00,
2013-03-15 03:10:00,31.0,24.0,30.43,SSE,158,0.0,2.0,75,0.00,,,0.00,weatherlink.com 1.10,2013-03-15 07:10:00,
2013-03-15 03:25:00,31.2,24.0,30.42,SSE,166,2.0,3.0,76,0.00,,,0.00,weatherlink.com 1.10,2013-03-15 07:25:00,
2013-03-15 03:40:00,31.8,25.0,30.42,ENE,62,0.0,2.0,75,0.00,,,0.00,weatherlink.com 1.10,2013-03-15 07:40:00,
2013-03-15 03:55:00,32.9,25.0,30.42,WNW,293,0.0,3.0,72,0.00,,,0.00,weatherlink.com 1.10,2013-03-15 07:55:00,
2013-03-15 04:10:00,32.7,26.0,30.42,SSE,153,3.0,3.0,75,0.00,,,0.00,weatherlink.com 1.10,2013-03-15 08:10:00,
2013-03-15 04:25:00,32.3,26.0,30.41,SSE,158,3.0,4.0,78,0.00,,,0.00,weatherlink.com 1.10,2013-03-15 08:25:00,
2013-03-15 04:40:00,32.3,26.0,30.41,South,176,4.0,4.0,77,0.00,,,0.00,weatherlink.com 1.10,2013-03-15 08:40:00,
2013-03-15 04:55:00,32.4,26.0,30.40,SSE,160,0.0,3.0,78,0.00,,,0.00,weatherlink.com 1.10,2013-03-15 08:55:00,
2013-03-15 05:10:00,32.2,26.0,30.40,South,173,2.0,3.0,79,0.00,,,0.00,weatherlink.com 1.10,2013-03-15 09:10:00,
2013-03-15 05:25:00,32.6,27.0,30.39,SSE,168,3.0,4.0,81,0.00,,,0.00,weatherlink.com 1.10,2013-03-15 09:25:00,
2013-03-15 05:40:00,33.1,26.0,30.40,SSE,156,3.0,4.0,75,0.00,,,0.00,weatherlink.com 1.10,2013-03-15 09:40:00,
2013-03-15 05:55:00,33.8,28.0,30.40,SSE,163,0.0,1.0,78,0.00,,,0.00,weatherlink.com 1.10,2013-03-15 09:55:00,
2013-03-15 06:10:00,35.0,28.0,30.40,South,177,0.0,3.0,74,0.00,,,0.00,weatherlink.com 1.10,2013-03-15 10:10:00,
2013-03-15 06:25:00,35.3,27.0,30.40,NNE,25,1.0,5.0,73,0.00,,,0.00,weatherlink.com 1.10,2013-03-15 10:25:00,
2013-03-15 06:55:00,34.3,26.0,30.40,SSE,154,2.0,4.0,73,0.00,,,0.00,weatherlink.com 1.10,2013-03-15 10:55:00,
2013-03-15 07:10:00,33.8,26.0,30.40,SSE,167,2.0,3.0,74,0.00,,,0.00,weatherlink.com 1.10,2013-03-15 11:10:00,
2013-03-15 07:25:00,34.1,27.0,30.40,SSE,165,2.0,3.0,75,0.00,,,0.00,weatherlink.com 1.10,2013-03-15 11:25:00,
2013-03-15 07:40:00,35.5,27.0,30.40,SW,217,1.0,4.0,72,0.00,,,0.00,weatherlink.com 1.10,2013-03-15 11:40:00,
2013-03-15 07:55:00,34.6,27.0,30.39,SSE,156,1.0,3.0,74,0.00,,,0.00,weatherlink.com 1.10,2013-03-15 11:55:00,
2013-03-15 08:10:00,34.5,27.0,30.40,SSE,155,4.0,4.0,75,0.00,,,0.00,weatherlink.com 1.10,2013-03-15 12:10:00,
2013-03-15 08:25:00,35.0,28.0,30.40,NW,305,1.0,2.0,75,0.00,,,0.00,weatherlink.com 1.10,2013-03-15 12:25:00,
2013-03-15 08:40:00,34.8,28.0,30.40,SSE,155,0.0,3.0,76,0.00,,,0.00,weatherlink.com 1.10,2013-03-15 12:40:00,
2013-03-15 08:55:00,35.4,28.0,30.39,SSE,155,0.0,3.0,75,0.00,,,0.00,weatherlink.com 1.10,2013-03-15 12:55:00,
2013-03-15 09:10:00,35.8,28.0,30.39,SSE,159,1.0,1.0,74,0.00,,,0.00,weatherlink.com 1.10,2013-03-15 13:10:00,
2013-03-15 09:25:00,36.5,29.0,30.38,South,169,0.0,1.0,73,0.00,,,0.00,weatherlink.com 1.10,2013-03-15 13:25:00,
2013-03-15 09:41:00,37.7,29.0,30.38,SE,134,0.0,0.0,71,0.00,,,0.00,weatherlink.com 1.10,2013-03-15 13:41:00,
2013-03-15 09:56:00,38.9,29.0,30.38,East,90,0.0,4.0,69,0.00,,,0.00,weatherlink.com 1.10,2013-03-15 13:56:00,
2013-03-15 10:11:00,40.3,30.0,30.38,SE,136,1.0,3.0,66,0.00,,,0.00,weatherlink.com 1.10,2013-03-15 14:11:00,
2013-03-15 10:56:00,46.5,32.0,30.37,NNW,332,3.0,4.0,57,0.00,,,0.00,weatherlink.com 1.10,2013-03-15 14:56:00,
2013-03-15 11:26:00,49.0,33.0,30.35,WNW,294,1.0,5.0,55,0.00,,,0.00,weatherlink.com 1.10,2013-03-15 15:26:00,
2013-03-15 11:41:00,51.4,34.0,30.35,North,353,3.0,4.0,52,0.00,,,0.00,weatherlink.com 1.10,2013-03-15 15:41:00,
2013-03-15 11:56:00,53.2,34.0,30.34,North,5,2.0,5.0,48,0.00,,,0.00,weatherlink.com 1.10,2013-03-15 15:56:00,
2013-03-15 12:11:00,54.9,35.0,30.33,WSW,239,1.0,5.0,48,0.00,,,0.00,weatherlink.com 1.10,2013-03-15 16:11:00,
2013-03-15 12:26:00,56.9,36.0,30.32,WNW,287,2.0,4.0,46,0.00,,,0.00,weatherlink.com 1.10,2013-03-15 16:26:00,
2013-03-15 12:41:00,57.3,37.0,30.31,SW,226,2.0,8.0,47,0.00,,,0.00,weatherlink.com 1.10,2013-03-15 16:41:00,
2013-03-15 12:56:00,58.0,37.0,30.30,West,260,1.0,5.0,45,0.00,,,0.00,weatherlink.com 1.10,2013-03-15 16:56:00,
2013-03-15 13:11:00,59.0,37.0,30.29,SW,218,2.0,6.0,44,0.00,,,0.00,weatherlink.com 1.10,2013-03-15 17:11:00,
2013-03-15 13:27:00,59.7,37.0,30.28,NW,311,4.0,5.0,43,0.00,,,0.00,weatherlink.com 1.10,2013-03-15 17:27:00,
2013-03-15 13:42:00,60.4,36.0,30.28,WNW,287,1.0,5.0,41,0.00,,,0.00,weatherlink.com 1.10,2013-03-15 17:42:00,
2013-03-15 14:12:00,61.7,36.0,30.26,WNW,290,3.0,7.0,38,0.00,,,0.00,weatherlink.com 1.10,2013-03-15 18:12:00,
2013-03-15 14:27:00,61.2,36.0,30.25,WNW,297,3.0,7.0,39,0.00,,,0.00,weatherlink.com 1.10,2013-03-15 18:27:00,
2013-03-15 14:42:00,60.9,36.0,30.24,SSW,195,2.0,8.0,39,0.00,,,0.00,weatherlink.com 1.10,2013-03-15 18:42:00,
2013-03-15 14:57:00,62.1,36.0,30.24,West,281,4.0,10.0,38,0.00,,,0.00,weatherlink.com 1.10,2013-03-15 18:57:00,
2013-03-15 15:12:00,62.0,34.0,30.23,North,350,4.0,9.0,35,0.00,,,0.00,weatherlink.com 1.10,2013-03-15 19:12:00,
2013-03-15 15:27:00,61.6,34.0,30.21,ESE,113,1.0,11.0,35,0.00,,,0.00,weatherlink.com 1.10,2013-03-15 19:27:00,
2013-03-15 15:42:00,61.1,34.0,30.21,SSW,201,4.0,8.0,37,0.00,,,0.00,weatherlink.com 1.10,2013-03-15 19:42:00,
2013-03-15 15:57:00,61.3,33.0,30.20,NNW,328,0.0,8.0,35,0.00,,,0.00,weatherlink.com 1.10,2013-03-15 19:57:00,
2013-03-15 16:12:00,61.3,33.0,30.19,SSW,211,2.0,12.0,35,0.00,,,0.00,weatherlink.com 1.10,2013-03-15 20:12:00,
2013-03-15 16:27:00,61.2,34.0,30.18,WNW,300,2.0,7.0,36,0.00,,,0.00,weatherlink.com 1.10,2013-03-15 20:27:00,
2013-03-15 16:42:00,61.4,35.0,30.18,NE,46,3.0,9.0,38,0.00,,,0.00,weatherlink.com 1.10,2013-03-15 20:42:00,
2013-03-15 16:57:00,62.8,35.0,30.17,WNW,287,1.0,6.0,36,0.00,,,0.00,weatherlink.com 1.10,2013-03-15 20:57:00,
2013-03-15 17:12:00,62.4,34.0,30.16,ESE,116,4.0,10.0,35,0.00,,,0.00,weatherlink.com 1.10,2013-03-15 21:12:00,
2013-03-15 17:27:00,61.8,34.0,30.16,SE,140,1.0,5.0,36,0.00,,,0.00,weatherlink.com 1.10,2013-03-15 21:27:00,
2013-03-15 17:42:00,61.7,36.0,30.16,East,96,3.0,7.0,38,0.00,,,0.00,weatherlink.com 1.10,2013-03-15 21:42:00,
2013-03-15 17:57:00,61.2,36.0,30.16,North,349,4.0,5.0,39,0.00,,,0.00,weatherlink.com 1.10,2013-03-15 21:57:00,
2013-03-15 18:12:00,60.8,37.0,30.16,North,360,4.0,6.0,42,0.00,,,0.00,weatherlink.com 1.10,2013-03-15 22:12:00,
2013-03-15 18:27:00,60.1,38.0,30.15,SW,217,0.0,7.0,44,0.00,,,0.00,weatherlink.com 1.10,2013-03-15 22:27:00,
2013-03-15 18:42:00,59.9,38.0,30.15,SE,143,0.0,7.0,45,0.00,,,0.00,weatherlink.com 1.10,2013-03-15 22:42:00,
2013-03-15 18:57:00,59.0,39.0,30.15,SW,228,1.0,5.0,48,0.00,,,0.00,weatherlink.com 1.10,2013-03-15 22:57:00,
2013-03-15 19:12:00,58.6,39.0,30.16,NNE,27,5.0,9.0,49,0.00,,,0.00,weatherlink.com 1.10,2013-03-15 23:12:00,
2013-03-15 19:27:00,57.8,40.0,30.16,SSW,195,1.0,6.0,51,0.00,,,0.00,weatherlink.com 1.10,2013-03-15 23:27:00,
2013-03-15 19:42:00,57.7,39.0,30.16,SSW,204,3.0,10.0,51,0.00,,,0.00,weatherlink.com 1.10,2013-03-15 23:42:00,
2013-03-15 19:57:00,56.5,40.0,30.16,SSW,197,2.0,6.0,54,0.00,,,0.00,weatherlink.com 1.10,2013-03-15 23:57:00,
2013-03-15 20:12:00,56.1,40.0,30.16,SSE,159,1.0,4.0,55,0.00,,,0.00,weatherlink.com 1.10,2013-03-16 00:12:00,
2013-03-15 20:27:00,55.9,40.0,30.16,North,9,1.0,5.0,55,0.00,,,0.00,weatherlink.com 1.10,2013-03-16 00:27:00,
2013-03-15 20:42:00,55.8,40.0,30.16,SSE,158,2.0,4.0,56,0.00,,,0.00,weatherlink.com 1.10,2013-03-16 00:42:00,
2013-03-15 20:57:00,55.7,40.0,30.16,SSW,203,2.0,4.0,56,0.00,,,0.00,weatherlink.com 1.10,2013-03-16 00:57:00,
2013-03-15 21:12:00,55.7,40.0,30.16,SSW,198,3.0,4.0,56,0.00,,,0.00,weatherlink.com 1.10,2013-03-16 01:12:00,
2013-03-15 21:27:00,55.7,40.0,30.15,SW,218,2.0,3.0,56,0.00,,,0.00,weatherlink.com 1.10,2013-03-16 01:27:00,
2013-03-15 21:42:00,55.7,40.0,30.15,South,179,2.0,3.0,56,0.00,,,0.00,weatherlink.com 1.10,2013-03-16 01:42:00,
2013-03-15 21:57:00,55.6,40.0,30.15,SW,214,0.0,3.0,57,0.00,,,0.00,weatherlink.com 1.10,2013-03-16 01:57:00,
2013-03-15 22:12:00,55.6,40.0,30.14,SW,228,0.0,4.0,57,0.00,,,0.00,weatherlink.com 1.10,2013-03-16 02:12:00,
2013-03-15 22:27:00,55.8,41.0,30.14,WSW,245,1.0,4.0,58,0.00,,,0.00,weatherlink.com 1.10,2013-03-16 02:27:00,
2013-03-15 22:42:00,55.7,41.0,30.14,SSE,165,2.0,5.0,58,0.00,,,0.00,weatherlink.com 1.10,2013-03-16 02:42:00,
2013-03-15 22:57:00,55.8,41.0,30.13,SW,229,3.0,5.0,59,0.00,,,0.00,weatherlink.com 1.10,2013-03-16 02:57:00,
2013-03-15 23:12:00,55.7,41.0,30.13,South,174,3.0,6.0,59,0.00,,,0.00,weatherlink.com 1.10,2013-03-16 03:12:00,
2013-03-15 23:27:00,55.7,41.0,30.13,SSW,209,3.0,4.0,59,0.00,,,0.00,weatherlink.com 1.10,2013-03-16 03:27:00,
2013-03-15 23:42:00,55.0,41.0,30.12,SSW,197,0.0,3.0,60,0.00,,,0.00,weatherlink.com 1.10,2013-03-16 03:42:00,
2013-03-15 23:58:00,55.1,41.0,30.12,SSW,208,1.0,3.0,60,0.00,,,0.00,weatherlink.com 1.10,2013-03-16 03:58:00,